Time;durP1;ratioP1;P1;durP2;ratioP2;P2;SDS_P1;SDS_P2;PMS_P1;PMS_P2;Temp;Humidity;BMP_temperature;BMP_pressure;BME280_temperature;BME280_humidity;BME280_pressure;Samples;Min_cycle;Max_cycle;Signal;HPM_P1;HPM_P2
2023/07/05 00:01:54;;;;;;;5.57;4.20;;;19.60;99.90;;;;;;5062539;28;20644;-82
2023/07/05 00:04:23;;;;;;;6.53;4.10;;;19.60;99.90;;;;;;5065087;28;20196;-81
2023/07/05 00:06:55;;;;;;;4.30;3.90;;;19.60;99.90;;;;;;5047461;28;20196;-83
2023/07/05 00:09:22;;;;;;;5.03;4.03;;;19.60;99.90;;;;;;5047922;28;20190;-81
2023/07/05 00:11:53;;;;;;;5.07;4.13;;;19.50;99.90;;;;;;5042279;28;20280;-83
2023/07/05 00:14:19;;;;;;;6.03;3.90;;;19.50;99.90;;;;;;5026654;28;20192;-83
2023/07/05 00:16:57;;;;;;;4.60;4.20;;;19.50;99.90;;;;;;5045326;22;20235;-82
2023/07/05 00:19:28;;;;;;;5.70;3.90;;;19.50;99.90;;;;;;5023232;28;20205;-82
2023/07/05 00:21:59;;;;;;;4.43;4.03;;;19.40;99.90;;;;;;5020497;23;20233;-82
2023/07/05 00:24:25;;;;;;;6.40;4.67;;;19.40;99.90;;;;;;5074062;23;20243;-82
2023/07/05 00:26:53;;;;;;;5.00;4.30;;;19.40;99.90;;;;;;5086277;22;20293;-85
2023/07/05 00:29:19;;;;;;;4.33;4.00;;;19.40;99.90;;;;;;5063453;28;20282;-85
2023/07/05 00:31:47;;;;;;;4.50;4.10;;;19.40;99.90;;;;;;5063945;28;20199;-85
2023/07/05 00:34:17;;;;;;;4.77;4.37;;;19.30;99.90;;;;;;5045419;28;20190;-85
2023/07/05 00:36:43;;;;;;;5.70;4.60;;;19.40;99.90;;;;;;5056970;28;20192;-85
2023/07/05 00:39:15;;;;;;;4.47;4.07;;;19.30;99.90;;;;;;5062654;28;20183;-86
2023/07/05 00:41:44;;;;;;;4.97;4.50;;;19.30;99.90;;;;;;5062012;28;20194;-85
2023/07/05 00:44:15;;;;;;;5.10;4.60;;;19.20;99.90;;;;;;5064078;28;20164;-85
2023/07/05 00:47:05;;;;;;;5.03;4.47;;;19.20;99.90;;;;;;5032767;28;20287;-86
2023/07/05 00:50:07;;;;;;;5.07;4.50;;;19.20;99.90;;;;;;5043406;28;20175;-85
2023/07/05 00:52:37;;;;;;;5.10;4.60;;;19.20;99.90;;;;;;5072485;28;20182;-85
2023/07/05 00:55:09;;;;;;;5.40;4.90;;;19.30;99.90;;;;;;5069466;28;20168;-85
2023/07/05 00:57:39;;;;;;;5.20;4.50;;;19.20;99.90;;;;;;5062014;28;20166;-88
2023/07/05 01:00:18;;;;;;;5.63;5.10;;;19.20;99.90;;;;;;5057342;22;20231;-86
2023/07/05 01:02:53;;;;;;;7.27;4.93;;;19.20;99.90;;;;;;5058644;28;20145;-86
2023/07/05 01:05:22;;;;;;;4.03;3.73;;;19.10;99.90;;;;;;5059099;28;20200;-87
2023/07/05 01:07:57;;;;;;;4.63;4.23;;;19.20;99.90;;;;;;5058950;28;20202;-87
2023/07/05 01:10:34;;;;;;;4.60;4.20;;;19.20;99.90;;;;;;5059327;28;20155;-89
2023/07/05 01:13:24;;;;;;;5.13;4.30;;;19.20;99.90;;;;;;5059073;28;20165;-87
2023/07/05 01:16:42;;;;;;;4.10;3.80;;;19.10;99.90;;;;;;5053935;28;20172;-86
2023/07/05 01:19:59;;;;;;;5.50;4.20;;;19.00;99.90;;;;;;5055388;28;20184;-86
2023/07/05 01:23:09;;;;;;;5.27;4.50;;;19.00;99.90;;;;;;5049928;23;20251;-85
2023/07/05 01:28:23;;;;;;;4.97;4.57;;;18.90;99.90;;;;;;5071056;28;20223;-83
2023/07/05 01:31:33;;;;;;;5.53;4.20;;;18.90;99.90;;;;;;5054787;28;20178;-84
2023/07/05 01:34:22;;;;;;;4.97;4.30;;;18.90;99.90;;;;;;5141173;23;20239;-82
2023/07/05 01:37:05;;;;;;;4.83;4.30;;;18.90;99.90;;;;;;5052741;28;20223;-83
2023/07/05 01:39:35;;;;;;;5.80;4.53;;;18.90;99.90;;;;;;5052519;28;20201;-83
2023/07/05 01:42:07;;;;;;;4.97;4.50;;;18.90;99.90;;;;;;5053516;28;20275;-83
2023/07/05 01:44:35;;;;;;;4.20;3.80;;;18.90;99.90;;;;;;5052089;28;20153;-82
2023/07/05 01:47:24;;;;;;;4.47;4.07;;;18.90;99.90;;;;;;5052187;28;20225;-82
2023/07/05 01:49:58;;;;;;;5.47;4.07;;;18.80;99.90;;;;;;5064954;23;20307;-83
2023/07/05 01:52:59;;;;;;;5.23;4.50;;;18.80;99.90;;;;;;5057152;28;20202;-83
2023/07/05 01:55:56;;;;;;;4.30;4.00;;;18.80;99.90;;;;;;5052831;28;20259;-83
2023/07/05 01:58:43;;;;;;;4.17;3.80;;;18.70;99.90;;;;;;5075943;22;20224;-83
2023/07/05 02:01:13;;;;;;;4.70;4.13;;;18.70;99.90;;;;;;5059023;28;20137;-87
2023/07/05 02:03:42;;;;;;;5.47;4.53;;;18.60;99.90;;;;;;5061199;28;20208;-82
2023/07/05 02:06:30;;;;;;;5.00;4.60;;;18.60;99.90;;;;;;5025342;28;20273;-82
2023/07/05 02:09:01;;;;;;;5.00;4.60;;;18.40;99.90;;;;;;5008905;28;20180;-82
2023/07/05 02:11:37;;;;;;;5.00;4.60;;;18.40;99.90;;;;;;5055394;28;20255;-83
2023/07/05 02:14:15;;;;;;;5.30;4.80;;;18.40;99.90;;;;;;5055433;28;20164;-82
2023/07/05 02:16:49;;;;;;;7.50;4.40;;;18.30;99.90;;;;;;5054926;28;20160;-83
2023/07/05 02:19:19;;;;;;;5.10;4.20;;;18.20;99.90;;;;;;5051507;28;20250;-82
2023/07/05 02:22:02;;;;;;;5.90;4.13;;;18.20;99.90;;;;;;5020780;28;20559;-83
2023/07/05 02:24:30;;;;;;;5.10;4.53;;;18.10;99.90;;;;;;5055006;28;20195;-84
2023/07/05 02:26:57;;;;;;;5.10;4.60;;;18.10;99.90;;;;;;5044105;28;20207;-83
2023/07/05 02:29:26;;;;;;;5.63;3.83;;;18.10;99.90;;;;;;5037215;28;20173;-81
2023/07/05 02:31:53;;;;;;;4.37;4.07;;;18.10;99.90;;;;;;5035369;28;20196;-84
2023/07/05 02:34:29;;;;;;;4.73;4.33;;;18.00;99.90;;;;;;5053189;28;20164;-83
2023/07/05 02:36:57;;;;;;;4.50;4.10;;;18.00;99.90;;;;;;5133084;22;20231;-87
2023/07/05 02:39:32;;;;;;;4.90;4.10;;;18.00;99.90;;;;;;5024887;28;20272;-82
2023/07/05 02:42:00;;;;;;;5.67;4.00;;;18.00;99.90;;;;;;5070510;22;20236;-82
2023/07/05 02:44:29;;;;;;;4.47;4.07;;;18.00;99.90;;;;;;5055343;23;20302;-83
2023/07/05 02:46:57;;;;;;;4.17;3.77;;;18.00;99.90;;;;;;5055249;28;20203;-82
2023/07/05 02:49:23;;;;;;;4.83;4.43;;;18.10;99.90;;;;;;5049466;22;20255;-83
2023/07/05 02:51:54;;;;;;;4.33;3.93;;;18.10;99.90;;;;;;5024298;28;20260;-81
2023/07/05 02:54:28;;;;;;;5.30;4.20;;;18.10;99.90;;;;;;5031505;28;20166;-83
2023/07/05 02:57:01;;;;;;;5.00;3.93;;;18.10;99.90;;;;;;5071074;22;20224;-82
2023/07/05 02:59:29;;;;;;;4.13;3.87;;;18.10;99.90;;;;;;5038614;28;20184;-82
2023/07/05 03:01:55;;;;;;;4.07;3.60;;;18.00;99.90;;;;;;5039987;28;20180;-80
2023/07/05 03:04:27;;;;;;;4.47;3.60;;;18.00;99.90;;;;;;5056314;28;20935;-83
2023/07/05 03:07:10;;;;;;;4.40;4.03;;;18.00;99.90;;;;;;5051381;28;20213;-82
2023/07/05 03:09:40;;;;;;;5.43;3.90;;;18.00;99.90;;;;;;5048142;28;20168;-85
2023/07/05 03:12:09;;;;;;;5.47;3.70;;;18.00;99.90;;;;;;5059482;28;20232;-82
2023/07/05 03:15:12;;;;;;;4.10;3.80;;;17.90;99.90;;;;;;5052454;28;20192;-82
2023/07/05 03:17:39;;;;;;;4.23;3.63;;;17.90;99.90;;;;;;5032807;28;20183;-81
2023/07/05 03:20:07;;;;;;;4.30;3.70;;;17.90;99.90;;;;;;5051194;28;20192;-82
2023/07/05 03:22:37;;;;;;;4.37;3.93;;;17.90;99.90;;;;;;5051295;28;20231;-82
2023/07/05 03:25:26;;;;;;;3.93;3.43;;;18.00;99.90;;;;;;5051424;28;20169;-82
2023/07/05 03:30:19;;;;;;;4.50;3.83;;;18.10;99.90;;;;;;5053005;22;20247;-81
2023/07/05 03:32:49;;;;;;;4.83;4.33;;;18.10;99.90;;;;;;5047624;28;20278;-82
2023/07/05 03:35:25;;;;;;;3.77;3.50;;;18.10;99.90;;;;;;5048915;28;20216;-82
2023/07/05 03:37:56;;;;;;;4.23;3.90;;;18.10;99.90;;;;;;5049986;28;20224;-82
2023/07/05 03:40:30;;;;;;;5.30;3.80;;;18.10;99.90;;;;;;5051618;28;20176;-81
2023/07/05 03:43:05;;;;;;;5.43;4.13;;;18.00;99.90;;;;;;5051098;28;20188;-81
2023/07/05 03:45:36;;;;;;;5.57;3.87;;;18.00;99.90;;;;;;5049006;28;20603;-81
2023/07/05 03:48:02;;;;;;;4.67;4.27;;;18.00;99.90;;;;;;5030579;28;20224;-82
2023/07/05 03:50:41;;;;;;;3.70;3.40;;;17.90;99.90;;;;;;5048083;28;20196;-82
2023/07/05 03:53:18;;;;;;;5.50;4.23;;;17.90;99.90;;;;;;5047980;28;20165;-81
2023/07/05 03:55:52;;;;;;;4.87;4.17;;;17.80;99.90;;;;;;5030329;28;20256;-82
2023/07/05 03:58:46;;;;;;;4.20;3.80;;;17.80;99.90;;;;;;5047762;28;20172;-82
2023/07/05 04:01:34;;;;;;;3.40;3.20;;;17.80;99.90;;;;;;5048100;28;20164;-83
2023/07/05 04:04:01;;;;;;;4.93;3.63;;;17.80;99.90;;;;;;5033882;28;20176;-84
2023/07/05 04:06:34;;;;;;;4.20;2.93;;;17.90;99.90;;;;;;5052751;28;20218;-83
2023/07/05 04:09:06;;;;;;;2.97;2.77;;;17.90;99.90;;;;;;5051926;28;20234;-83
2023/07/05 04:11:38;;;;;;;2.90;2.70;;;18.00;99.90;;;;;;5035134;28;20199;-84
2023/07/05 04:14:04;;;;;;;2.80;2.60;;;18.00;99.90;;;;;;5033808;28;20179;-83
2023/07/05 04:16:31;;;;;;;3.03;2.80;;;18.00;99.90;;;;;;5042226;28;20163;-87
2023/07/05 04:19:15;;;;;;;2.77;2.57;;;18.10;99.90;;;;;;5041229;28;20260;-83
2023/07/05 04:21:41;;;;;;;2.80;2.60;;;18.20;99.90;;;;;;5055158;28;20581;-82
2023/07/05 04:24:11;;;;;;;4.27;2.70;;;18.20;99.90;;;;;;5049077;28;20168;-82
2023/07/05 04:26:39;;;;;;;2.70;2.50;;;18.30;99.90;;;;;;5030352;28;20193;-83
2023/07/05 04:29:08;;;;;;;2.90;2.70;;;18.30;99.90;;;;;;5046289;28;20327;-83
2023/07/05 04:31:34;;;;;;;3.20;2.90;;;18.30;99.90;;;;;;5044240;28;20184;-82
2023/07/05 04:34:02;;;;;;;2.50;2.40;;;18.40;99.90;;;;;;5042248;28;20235;-83
2023/07/05 04:36:29;;;;;;;2.70;2.50;;;18.40;99.90;;;;;;5053731;22;20246;-84
2023/07/05 04:38:56;;;;;;;3.87;3.00;;;18.50;99.90;;;;;;5031669;28;20188;-83
2023/07/05 04:41:39;;;;;;;4.50;2.93;;;18.50;99.90;;;;;;5034589;28;20165;-84
2023/07/05 04:44:06;;;;;;;4.47;3.73;;;18.50;99.90;;;;;;5038729;28;20164;-83
2023/07/05 04:46:32;;;;;;;3.50;3.20;;;18.50;99.90;;;;;;5053320;28;20231;-82
2023/07/05 04:48:57;;;;;;;4.30;3.10;;;18.60;99.90;;;;;;5030969;28;20244;-83
2023/07/05 04:51:27;;;;;;;3.13;2.80;;;18.60;99.90;;;;;;5030163;28;20173;-85
2023/07/05 04:53:52;;;;;;;3.97;3.57;;;18.60;99.90;;;;;;5031268;28;20185;-83
2023/07/05 04:56:20;;;;;;;4.07;3.30;;;18.60;99.90;;;;;;5028646;28;20598;-84
2023/07/05 04:58:52;;;;;;;3.80;3.50;;;18.70;99.90;;;;;;5056525;28;20160;-84
2023/07/05 05:01:21;;;;;;;4.83;3.40;;;18.70;99.90;;;;;;5058103;28;20173;-86
2023/07/05 05:03:49;;;;;;;4.00;3.57;;;18.80;99.90;;;;;;5041073;28;20180;-83
2023/07/05 05:06:16;;;;;;;6.33;3.73;;;18.90;99.90;;;;;;5023215;28;20188;-85
2023/07/05 05:08:42;;;;;;;3.83;3.50;;;18.90;99.90;;;;;;5058417;28;20208;-83
2023/07/05 05:11:09;;;;;;;4.97;3.80;;;18.90;99.90;;;;;;5051772;28;20191;-83
2023/07/05 05:13:36;;;;;;;4.93;3.67;;;18.90;99.90;;;;;;5058164;28;20172;-82
2023/07/05 05:16:06;;;;;;;4.17;3.87;;;19.00;99.90;;;;;;5058817;28;20196;-84
2023/07/05 05:18:44;;;;;;;4.17;3.77;;;19.00;99.90;;;;;;5057443;28;20188;-85
2023/07/05 05:21:17;;;;;;;5.90;3.43;;;19.10;99.90;;;;;;5057839;28;20183;-82
2023/07/05 05:23:42;;;;;;;5.23;3.73;;;19.10;99.90;;;;;;5051214;28;20164;-82
2023/07/05 05:26:16;;;;;;;4.37;3.50;;;19.20;99.90;;;;;;5045731;28;20180;-81
2023/07/05 05:28:41;;;;;;;4.10;3.70;;;19.30;99.90;;;;;;5027660;28;20221;-83
2023/07/05 05:31:10;;;;;;;4.97;3.70;;;19.30;99.90;;;;;;5019368;22;20232;-82
2023/07/05 05:33:38;;;;;;;4.43;3.90;;;19.50;99.90;;;;;;5044835;28;20184;-83
2023/07/05 05:36:10;;;;;;;4.17;3.77;;;19.60;99.90;;;;;;5026280;28;20183;-84
2023/07/05 05:38:47;;;;;;;6.10;3.80;;;19.60;99.90;;;;;;5031141;28;20193;-87
2023/07/05 05:41:14;;;;;;;4.30;3.90;;;19.80;99.90;;;;;;5032828;28;20183;-83
2023/07/05 05:43:43;;;;;;;5.60;3.30;;;19.90;99.90;;;;;;5040746;28;20184;-82
2023/07/05 05:46:17;;;;;;;4.27;3.83;;;19.90;99.90;;;;;;5049629;28;20180;-84
2023/07/05 05:48:44;;;;;;;6.37;3.70;;;19.90;99.90;;;;;;5057128;22;20258;-82
2023/07/05 05:51:19;;;;;;;4.57;3.73;;;20.00;99.90;;;;;;5032859;28;20172;-84
2023/07/05 05:53:45;;;;;;;4.00;3.10;;;20.10;99.90;;;;;;5042767;22;20219;-83
2023/07/05 05:56:12;;;;;;;3.63;3.43;;;20.10;99.90;;;;;;5055089;28;20199;-81
2023/07/05 05:58:40;;;;;;;3.40;3.20;;;20.20;99.90;;;;;;5032959;28;20181;-83
2023/07/05 06:01:08;;;;;;;3.67;2.87;;;20.30;99.90;;;;;;5055605;22;20232;-85
2023/07/05 06:03:54;;;;;;;3.57;3.27;;;20.40;99.90;;;;;;5047799;28;20183;-86
2023/07/05 06:06:21;;;;;;;3.80;3.30;;;20.40;99.90;;;;;;5048772;28;20259;-85
2023/07/05 06:08:48;;;;;;;5.37;3.53;;;20.40;99.90;;;;;;5030505;28;20668;-85
2023/07/05 06:11:17;;;;;;;3.37;3.07;;;20.50;99.90;;;;;;5046259;28;20180;-82
2023/07/05 06:13:45;;;;;;;3.80;3.50;;;20.60;99.90;;;;;;5032803;28;20180;-83
2023/07/05 06:16:14;;;;;;;4.07;2.90;;;20.70;99.90;;;;;;5053337;28;20168;-83
2023/07/05 06:18:42;;;;;;;3.43;3.13;;;20.80;99.90;;;;;;5052123;28;20188;-86
2023/07/05 06:21:11;;;;;;;3.37;3.17;;;21.00;99.90;;;;;;5018001;28;20176;-84
2023/07/05 06:23:37;;;;;;;2.70;2.50;;;21.10;99.90;;;;;;5046889;28;20524;-84
2023/07/05 06:26:09;;;;;;;2.87;2.63;;;21.00;99.90;;;;;;5048688;28;20169;-84
2023/07/05 06:28:35;;;;;;;3.00;2.80;;;21.10;99.90;;;;;;5047800;28;20195;-88
2023/07/05 06:31:12;;;;;;;2.70;2.50;;;21.30;99.90;;;;;;5054246;28;20192;-81
2023/07/05 06:33:39;;;;;;;3.43;2.60;;;21.20;99.90;;;;;;5058085;28;20145;-83
2023/07/05 06:36:10;;;;;;;2.93;2.60;;;21.30;99.90;;;;;;5033162;28;20226;-83
2023/07/05 06:38:39;;;;;;;2.70;2.50;;;21.40;99.90;;;;;;5054684;28;20164;-82
2023/07/05 06:41:08;;;;;;;3.10;2.73;;;21.50;99.90;;;;;;5055657;28;20180;-84
2023/07/05 06:43:37;;;;;;;2.80;2.60;;;21.70;99.90;;;;;;5056409;28;20180;-84
2023/07/05 06:46:05;;;;;;;3.10;2.40;;;21.80;99.90;;;;;;5052489;28;20195;-83
2023/07/05 06:48:32;;;;;;;3.53;2.70;;;21.90;99.90;;;;;;5056928;28;20179;-81
2023/07/05 06:51:11;;;;;;;3.27;2.50;;;22.00;99.90;;;;;;5071866;22;20293;-84
2023/07/05 06:53:38;;;;;;;3.57;3.00;;;22.00;99.90;;;;;;5022819;28;20188;-84
2023/07/05 06:56:05;;;;;;;5.63;3.13;;;22.00;99.90;;;;;;5022578;28;20215;-82
2023/07/05 06:58:31;;;;;;;4.17;3.10;;;22.00;99.90;;;;;;5020401;28;20207;-83
2023/07/05 07:01:05;;;;;;;3.35;3.05;;;22.00;99.90;;;;;;5014702;22;20236;-84
2023/07/05 07:03:33;;;;;;;3.10;2.90;;;22.00;99.90;;;;;;5053702;28;20604;-85
2023/07/05 07:06:00;;;;;;;5.37;3.23;;;22.00;99.90;;;;;;5056698;28;20173;-83
2023/07/05 07:08:51;;;;;;;3.10;2.90;;;22.00;99.90;;;;;;5040773;28;20193;-83
2023/07/05 07:11:25;;;;;;;4.95;3.05;;;22.20;99.90;;;;;;5039216;22;20208;-83
2023/07/05 07:13:55;;;;;;;3.50;3.20;;;22.40;99.90;;;;;;5041611;28;20196;-82
2023/07/05 07:16:25;;;;;;;3.53;3.23;;;22.40;99.90;;;;;;5061015;28;20799;-83
2023/07/05 07:19:08;;;;;;;3.00;2.80;;;22.30;99.90;;;;;;5058828;28;20192;-88
2023/07/05 07:22:15;;;;;;;3.17;2.97;;;22.50;99.90;;;;;;5060915;28;20153;-90
2023/07/05 07:24:46;;;;;;;4.27;3.10;;;22.50;99.90;;;;;;5025139;28;20175;-89
2023/07/05 07:27:34;;;;;;;5.05;2.95;;;22.60;99.90;;;;;;5056277;28;20201;-90
2023/07/05 07:30:02;;;;;;;2.83;2.53;;;22.80;99.90;;;;;;5115909;23;20256;-94
2023/07/05 07:32:28;;;;;;;3.17;2.88;;;23.00;99.90;;;;;;5040691;28;20180;-93
2023/07/05 07:34:55;;;;;;;3.42;3.13;;;23.10;99.90;;;;;;5060122;28;20175;-89
2023/07/05 07:37:22;;;;;;;3.30;3.05;;;23.10;99.90;;;;;;5038464;28;20168;-93
2023/07/05 07:39:48;;;;;;;3.40;3.10;;;23.10;99.90;;;;;;5068969;22;20237;-93
2023/07/05 07:42:14;;;;;;;2.85;2.65;;;23.00;99.90;;;;;;5014230;28;20193;-88
2023/07/05 07:44:41;;;;;;;3.15;2.92;;;23.00;99.90;;;;;;5029529;28;20177;-92
2023/07/05 07:47:07;;;;;;;2.72;2.47;;;23.20;99.90;;;;;;5027033;28;20766;-89
2023/07/05 07:49:36;;;;;;;2.92;2.72;;;23.10;99.90;;;;;;5027562;28;20173;-86
2023/07/05 07:52:03;;;;;;;3.03;2.83;;;23.20;99.90;;;;;;5025338;28;20184;-87
2023/07/05 07:54:31;;;;;;;2.65;2.55;;;23.30;99.90;;;;;;5025689;28;20184;-88
2023/07/05 07:56:57;;;;;;;2.60;2.50;;;23.50;99.90;;;;;;5020639;28;20584;-88
2023/07/05 07:59:24;;;;;;;3.03;2.80;;;23.60;99.90;;;;;;5017589;28;20637;-87
2023/07/05 08:01:56;;;;;;;2.70;2.50;;;23.70;99.90;;;;;;5024726;28;20212;-92
2023/07/05 08:04:21;;;;;;;2.55;2.45;;;23.90;99.90;;;;;;5025972;28;20236;-86
2023/07/05 08:06:51;;;;;;;2.72;2.53;;;24.00;99.90;;;;;;5024544;28;20695;-90
2023/07/05 08:09:23;;;;;;;2.97;2.67;;;24.10;99.90;;;;;;5025523;28;20197;-90
2023/07/05 08:11:49;;;;;;;2.92;2.72;;;24.20;99.90;;;;;;5024184;28;20666;-90
2023/07/05 08:14:17;;;;;;;3.58;2.70;;;24.40;99.90;;;;;;5023446;28;20216;-91
2023/07/05 08:16:46;;;;;;;3.90;2.50;;;24.30;99.90;;;;;;5023161;28;20181;-87
2023/07/05 08:19:14;;;;;;;2.72;2.53;;;24.40;99.90;;;;;;5025713;28;20165;-87
2023/07/05 08:21:43;;;;;;;3.10;2.90;;;24.60;99.90;;;;;;5008750;28;20224;-89
2023/07/05 08:24:10;;;;;;;2.95;2.70;;;24.60;99.90;;;;;;5022417;28;20181;-86
2023/07/05 08:26:36;;;;;;;2.88;2.63;;;24.70;99.90;;;;;;5021171;28;20216;-85
2023/07/05 08:29:03;;;;;;;2.83;2.63;;;24.70;99.90;;;;;;5019819;28;20173;-88
2023/07/05 08:31:31;;;;;;;2.42;2.33;;;24.70;99.90;;;;;;5028568;28;20245;-93
2023/07/05 08:33:57;;;;;;;3.00;2.70;;;24.70;99.90;;;;;;5029264;28;20254;-91
2023/07/05 08:36:41;;;;;;;2.38;2.28;;;24.70;99.90;;;;;;5027237;28;20180;-92
2023/07/05 08:39:12;;;;;;;2.58;2.47;;;24.90;99.90;;;;;;5028443;28;20177;-87
2023/07/05 08:41:44;;;;;;;2.60;2.40;;;25.00;99.90;;;;;;5030540;28;20177;-93
2023/07/05 08:44:25;;;;;;;2.83;2.63;;;25.10;99.90;;;;;;5035112;28;20192;-87
2023/07/05 08:47:13;;;;;;;2.78;2.58;;;25.10;99.90;;;;;;5058967;28;20215;-90
2023/07/05 08:49:45;;;;;;;2.60;2.50;;;25.30;99.90;;;;;;5025838;28;20191;-86
2023/07/05 08:52:20;;;;;;;2.42;2.33;;;25.50;99.90;;;;;;5045636;28;20647;-86
2023/07/05 08:54:47;;;;;;;2.67;2.50;;;25.50;99.90;;;;;;5039307;28;20148;-88
2023/07/05 08:57:49;;;;;;;2.47;2.38;;;25.60;99.90;;;;;;5006300;28;20177;-86
2023/07/05 09:00:24;;;;;;;2.45;2.35;;;25.50;99.90;;;;;;5038418;28;20227;-85
2023/07/05 09:02:49;;;;;;;2.38;2.17;;;25.40;99.90;;;;;;5049318;28;20199;-86
2023/07/05 09:05:33;;;;;;;2.58;2.40;;;25.40;99.90;;;;;;5035892;28;20180;-88
2023/07/05 09:08:24;;;;;;;2.50;2.28;;;25.10;99.90;;;;;;5012093;28;20223;-87
2023/07/05 09:10:55;;;;;;;2.42;2.33;;;24.90;99.90;;;;;;5051631;28;20164;-86
2023/07/05 09:13:37;;;;;;;2.92;2.72;;;24.70;99.90;;;;;;5041019;28;20152;-87
2023/07/05 09:16:48;;;;;;;2.72;2.63;;;24.70;99.90;;;;;;5042815;28;20540;-86
2023/07/05 09:19:50;;;;;;;2.47;2.38;;;24.80;99.90;;;;;;4961468;29;20207;-87
2023/07/05 09:22:22;;;;;;;2.88;2.67;;;24.80;99.90;;;;;;4957448;28;20186;-87
2023/07/05 09:24:48;;;;;;;2.60;2.40;;;24.80;99.90;;;;;;4942993;29;20210;-89
2023/07/05 09:27:49;;;;;;;2.65;2.45;;;24.60;99.90;;;;;;4957560;29;20203;-87
2023/07/05 09:30:26;;;;;;;3.08;2.47;;;24.70;99.90;;;;;;4958758;29;20189;-88
2023/07/05 09:33:30;;;;;;;2.35;2.25;;;24.80;99.90;;;;;;4942905;29;20163;-85
2023/07/05 09:36:00;;;;;;;2.95;2.42;;;24.90;99.90;;;;;;4957188;29;20187;-86
2023/07/05 09:38:30;;;;;;;2.38;2.22;;;25.00;99.90;;;;;;4941085;29;20595;-85
2023/07/05 09:41:21;;;;;;;3.58;2.40;;;25.10;99.90;;;;;;4956514;29;20596;-86
2023/07/05 09:43:47;;;;;;;2.30;2.13;;;25.20;99.90;;;;;;4960408;29;20214;-88
2023/07/05 09:46:30;;;;;;;2.45;2.28;;;25.30;99.90;;;;;;4961995;29;20183;-90
2023/07/05 09:48:56;;;;;;;2.85;2.45;;;25.50;99.90;;;;;;4966929;29;20548;-89
2023/07/05 09:51:22;;;;;;;2.80;2.60;;;25.50;99.90;;;;;;4966455;29;20218;-90
2023/07/05 09:54:02;;;;;;;2.40;2.30;;;25.70;99.90;;;;;;4967433;29;20199;-90
2023/07/05 09:56:28;;;;;;;2.50;2.30;;;25.80;99.90;;;;;;5016267;28;20188;-89
2023/07/05 09:59:20;;;;;;;2.38;2.17;;;25.80;99.90;;;;;;5054946;28;20185;-90
2023/07/05 10:01:50;;;;;;;2.40;2.25;;;25.90;99.90;;;;;;5024513;28;20153;-87
2023/07/05 10:04:20;;;;;;;2.50;2.30;;;26.10;99.90;;;;;;5057950;28;20184;-90
2023/07/05 10:06:50;;;;;;;2.65;2.45;;;25.80;99.90;;;;;;5058001;28;20264;-88
2023/07/05 10:09:27;;;;;;;2.88;2.45;;;25.60;99.90;;;;;;5057287;28;20145;-90
2023/07/05 10:11:59;;;;;;;2.40;2.10;;;25.40;99.90;;;;;;5051951;28;20643;-89
2023/07/05 10:14:33;;;;;;;2.08;1.98;;;25.20;99.90;;;;;;4999093;28;20177;-88
2023/07/05 10:17:11;;;;;;;2.20;2.10;;;25.60;99.90;;;;;;5031904;28;20191;-90
2023/07/05 10:19:47;;;;;;;2.10;2.00;;;25.80;99.90;;;;;;5030069;28;20165;-89
2023/07/05 10:22:17;;;;;;;2.20;2.10;;;26.00;99.90;;;;;;5045547;28;20218;-91
2023/07/05 10:24:48;;;;;;;2.40;2.30;;;26.00;99.90;;;;;;5048590;28;20165;-88
2023/07/05 10:27:37;;;;;;;2.30;2.20;;;26.10;99.90;;;;;;5030629;28;20231;-87
2023/07/05 10:30:07;;;;;;;2.38;2.28;;;26.00;99.90;;;;;;5047057;28;20179;-88
2023/07/05 10:32:36;;;;;;;2.97;2.78;;;25.60;99.90;;;;;;5050777;28;20203;-85
2023/07/05 10:35:27;;;;;;;2.15;2.05;;;25.60;99.90;;;;;;5038473;28;20228;-85
2023/07/05 10:37:54;;;;;;;2.45;2.33;;;25.30;99.90;;;;;;5044224;28;20153;-89
2023/07/05 10:40:50;;;;;;;2.67;2.47;;;25.20;99.90;;;;;;5058368;28;20220;-87
2023/07/05 10:43:17;;;;;;;2.80;2.30;;;25.20;99.90;;;;;;5050170;28;20185;-86
2023/07/05 10:45:44;;;;;;;2.53;2.33;;;25.20;99.90;;;;;;5031007;28;20184;-85
2023/07/05 10:48:24;;;;;;;2.60;2.40;;;25.10;99.90;;;;;;5030317;28;20288;-86
2023/07/05 10:50:50;;;;;;;2.42;2.33;;;25.20;99.90;;;;;;5015533;28;20189;-85
2023/07/05 10:53:19;;;;;;;2.60;2.40;;;25.20;99.90;;;;;;5008007;28;20224;-89
2023/07/05 10:56:14;;;;;;;2.55;2.45;;;25.20;99.90;;;;;;5025711;28;20260;-88
2023/07/05 10:58:49;;;;;;;2.58;2.47;;;25.60;99.90;;;;;;5009642;28;20189;-87
2023/07/05 11:01:40;;;;;;;2.65;2.45;;;25.50;99.90;;;;;;5016408;28;20171;-87
2023/07/05 11:04:21;;;;;;;2.33;2.22;;;25.40;99.90;;;;;;5034891;28;20193;-87
2023/07/05 11:06:52;;;;;;;2.38;2.22;;;25.50;99.90;;;;;;5025472;28;20212;-87
2023/07/05 11:09:19;;;;;;;2.40;2.22;;;25.60;99.90;;;;;;5001946;28;20193;-86
2023/07/05 11:11:53;;;;;;;2.13;2.03;;;25.90;99.90;;;;;;5020566;28;20568;-86
2023/07/05 11:14:22;;;;;;;2.38;2.28;;;26.00;99.90;;;;;;5024203;28;20228;-85
2023/07/05 11:16:49;;;;;;;2.70;2.50;;;26.20;99.90;;;;;;5037703;28;20208;-85
2023/07/05 11:19:20;;;;;;;2.53;2.33;;;26.20;99.90;;;;;;5037759;28;20184;-84
2023/07/05 11:21:48;;;;;;;2.50;2.40;;;26.20;99.90;;;;;;5038230;28;20644;-86
2023/07/05 11:24:39;;;;;;;2.60;2.40;;;26.30;99.90;;;;;;5024084;28;20200;-87
2023/07/05 11:27:23;;;;;;;2.40;2.20;;;26.20;99.90;;;;;;5026117;28;20219;-86
2023/07/05 11:29:54;;;;;;;2.50;2.30;;;26.10;99.90;;;;;;5025629;28;20176;-86
2023/07/05 11:33:03;;;;;;;2.50;2.30;;;26.20;99.90;;;;;;5026541;28;20169;-86
2023/07/05 11:35:50;;;;;;;2.97;2.50;;;26.30;99.90;;;;;;5026591;28;20172;-89
2023/07/05 11:38:55;;;;;;;2.20;2.10;;;26.20;99.90;;;;;;5051531;28;20161;-87
2023/07/05 11:41:30;;;;;;;3.15;2.35;;;26.30;99.90;;;;;;4961911;29;20222;-87
2023/07/05 11:44:01;;;;;;;2.63;2.40;;;26.30;99.90;;;;;;4962080;29;20659;-85
2023/07/05 11:46:44;;;;;;;5.40;2.67;;;26.40;99.90;;;;;;4962154;29;20186;-87
2023/07/05 11:49:29;;;;;;;2.17;2.08;;;26.70;99.90;;;;;;4950851;29;20195;-86
2023/07/05 11:52:12;;;;;;;2.60;2.40;;;27.00;99.90;;;;;;4940774;29;20192;-86
2023/07/05 11:55:08;;;;;;;2.50;2.40;;;27.30;99.90;;;;;;4956446;29;20175;-88
2023/07/05 11:57:56;;;;;;;2.15;2.05;;;27.60;99.70;;;;;;4968302;28;20191;-85
2023/07/05 12:00:42;;;;;;;2.13;2.03;;;27.60;99.80;;;;;;4963460;29;20175;-86
2023/07/05 12:03:21;;;;;;;2.58;2.38;;;27.50;99.00;;;;;;4955870;29;20262;-86
2023/07/05 12:06:19;;;;;;;2.50;2.30;;;27.40;99.00;;;;;;4956190;29;20657;-87
2023/07/05 12:09:06;;;;;;;2.08;1.98;;;27.20;99.10;;;;;;4957279;28;20235;-86
2023/07/05 12:11:39;;;;;;;3.22;2.13;;;27.10;99.50;;;;;;4957269;29;20174;-87
2023/07/05 12:14:12;;;;;;;2.28;2.17;;;27.30;99.90;;;;;;4957678;28;20679;-86
2023/07/05 12:16:38;;;;;;;1.92;1.83;;;27.60;99.70;;;;;;5037995;28;20225;-86
2023/07/05 12:19:15;;;;;;;3.25;2.45;;;27.70;99.50;;;;;;5047837;28;20184;-91
2023/07/05 12:21:44;;;;;;;2.40;2.25;;;27.80;99.60;;;;;;5040341;28;20197;-88
2023/07/05 12:24:11;;;;;;;2.83;2.50;;;27.80;98.90;;;;;;5021729;28;20188;-87
2023/07/05 12:26:39;;;;;;;2.85;2.65;;;27.50;99.60;;;;;;5048808;28;20204;-84
2023/07/05 12:29:28;;;;;;;3.97;2.60;;;27.50;99.40;;;;;;5057991;28;20184;-86
2023/07/05 12:32:11;;;;;;;2.75;2.50;;;27.70;99.00;;;;;;5052748;28;20171;-87
2023/07/05 12:34:38;;;;;;;2.28;2.17;;;27.90;99.20;;;;;;5012537;28;20259;-88
2023/07/05 12:37:03;;;;;;;2.58;2.40;;;28.00;99.50;;;;;;5042393;28;20198;-88
2023/07/05 12:39:29;;;;;;;2.53;2.42;;;28.20;99.50;;;;;;5024407;28;20293;-88
2023/07/05 12:42:08;;;;;;;2.67;2.50;;;28.30;98.30;;;;;;5019981;28;20177;-88
2023/07/05 12:44:35;;;;;;;3.15;2.90;;;28.60;98.40;;;;;;5037567;28;20152;-87
2023/07/05 12:47:14;;;;;;;2.92;2.67;;;28.70;98.10;;;;;;5037858;28;20215;-87
2023/07/05 12:49:40;;;;;;;3.15;2.47;;;28.60;98.50;;;;;;5045915;28;20180;-87
2023/07/05 12:52:22;;;;;;;2.85;2.63;;;28.50;98.30;;;;;;5046311;28;20176;-93
2023/07/05 12:54:48;;;;;;;2.63;2.42;;;28.50;98.20;;;;;;5030923;28;20195;-92
2023/07/05 12:57:28;;;;;;;2.80;2.60;;;28.40;98.00;;;;;;5026394;28;20176;-90
2023/07/05 12:59:54;;;;;;;2.88;2.58;;;28.40;97.90;;;;;;5045390;28;20191;-92
2023/07/05 13:02:28;;;;;;;2.75;2.55;;;28.30;98.00;;;;;;5051112;28;20176;-85
2023/07/05 13:04:56;;;;;;;3.80;3.47;;;28.30;97.80;;;;;;5025800;28;20167;-92
2023/07/05 13:07:24;;;;;;;2.53;2.42;;;28.00;98.90;;;;;;5026109;28;20208;-91
2023/07/05 13:09:54;;;;;;;3.00;2.80;;;27.70;99.30;;;;;;5043022;28;20239;-90
2023/07/05 13:12:20;;;;;;;3.05;2.80;;;27.30;99.50;;;;;;5026209;28;20179;-89
2023/07/05 13:15:17;;;;;;;2.80;2.63;;;27.30;99.90;;;;;;5018840;28;20184;-88
2023/07/05 13:17:43;;;;;;;3.20;3.00;;;27.50;99.40;;;;;;4979124;28;20180;-88
2023/07/05 13:20:19;;;;;;;3.75;2.78;;;27.60;99.90;;;;;;4979278;28;20223;-87
2023/07/05 13:22:52;;;;;;;3.08;2.78;;;27.70;99.30;;;;;;4965161;29;20186;-90
2023/07/05 13:25:45;;;;;;;3.08;2.88;;;27.90;98.40;;;;;;4961108;29;20199;-89
2023/07/05 13:28:21;;;;;;;2.95;2.75;;;28.00;98.80;;;;;;4955935;29;20227;-88
2023/07/05 13:30:59;;;;;;;3.67;3.28;;;28.20;98.50;;;;;;4941493;29;20182;-86